Altus, OK

08:33 CDT le 21 octobre 2014 (GMT -0500)
Altus Municipal | Change Station
CLOSE
Current Station
Aéroport
Location: Altus,
Altitude: 1434 ft
Stations météo à proximité

Alt. 1434 ft 34.70 °N, 99.34 °W | Updated 18 minutes ago

Ciel dégagé
Ciel dégagé
58 ° F
Paraît 58 ° F
N
6
Vent Variable Vent de ESE

Aujourd'hui
Haut(e) -- | Bas -- ° F
--% Risque de précip.
Hier
Haut(e) -- | Bas -- ° F
Precip. -- pouce
7:48 AM 6:55 PM
Lune descendante, 5% visible
Pression 30.10 pouce
Visibilité 7.0 Miles terrestres
Nuages Ciel dégagé
Point de rosée 55 ° F
Humidité 87%
Précipitations 0.00 pouce
Profondeur de la couche neigeuse Non disponible.
UV 0 sur 12
Pollen 5.80 sur 12
Qualité de l'air Non disponible.
Flu Activity No Activity
METAR KAXS 211315Z AUTO 11005KT 7SM CLR 15/13 A3010 RMK AO2 T01470126

More Conditions Fewer Conditions

Pression 30.10 pouce
Visibilité 7.0 Miles terrestres
Nuages Ciel dégagé
Point de rosée 55 ° F
Humidité 87%
Précipitations 0.00 pouce
Profondeur de la couche neigeuse Non disponible.
UV 0 sur 12
Pollen 5.80 sur 12
Qualité de l'air Non disponible.
Flu Activity No Activity
METAR KAXS 211315Z AUTO 11005KT 7SM CLR 15/13 A3010 RMK AO2 T01470126

More Conditions Fewer Conditions

10-Day Weather Forecast

Almanac

Astronomie

Oct. 21, 2014 Lever Coucher
Temps réel 07:48 CDT 18:55 CDT
Crépuscule civil 07:22 CDT 19:20 CDT
Crépuscule nautique 06:53 CDT 19:50 CDT
Crépuscule astronomique 06:23 CDT 20:19 CDT
Lune 05:39 CDT 17:46 CDT
Durée de lumière visible 11h 58m
Longueur du jour
11h 07m
Tomorrow will be 2m 2s shorter.
Lune descendante, 5% of the Moon is Illuminated
Aujourd'hui
Lune descendante
Oct 23
Nouveau
Oct 30
Premier quartier
Nov 6
Pleine lune
Nov 14
Dernier quartier

Extrêmes aujourd'hui

State Highs State Lows

Community

WunderPhotos

Upload Photos

1,763,662 Photos téléchargées !

Nearby

Épaisseur de neige

Station Depth Altitude
Pas de nouvelles chutes de neige

Activité sismique

Ville Distance Mag. Time & Date
Helena, Oklahoma 152 Miles terrestres 3.0 10:35 CDT
2014-10-20
Perry, Oklahoma 145 Miles terrestres 3.0 14:26 CDT
2014-10-18
Mooreland, Oklahoma 127 Miles terrestres 2.9 07:34 CDT
2014-10-18
Enid, Oklahoma 152 Miles terrestres 2.5 04:57 CDT
2014-10-18
Minimum magnitude displayed is 2.5.

Températures des eaux côtières

Lieu Température
Aucun rapport de station

Stations météo à proximité